Time;durP1;ratioP1;P1;durP2;ratioP2;P2;SDS_P1;SDS_P2;PMS_P1;PMS_P2;Temp;Humidity;BMP_temperature;BMP_pressure;BME280_temperature;BME280_humidity;BME280_pressure;Samples;Min_cycle;Max_cycle;Signal;HPM_P1;HPM_P2
2022/01/25 00:26:23;;;;;;;56.28;28.88;;;3.00;99.90;;;;;;2585064;54;20076;31
2022/01/25 00:29:08;;;;;;;55.45;28.50;;;3.10;99.90;;;;;;2585384;54;20739;31
2022/01/25 00:35:04;;;;;;;49.08;26.30;;;3.10;99.90;;;;;;2684161;39;20477;31
2022/01/25 00:43:07;;;;;;;50.72;27.02;;;3.10;99.90;;;;;;2631332;54;20067;-93
2022/01/25 00:46:04;;;;;;;;;;;;;;;;;;;;;
2022/01/25 00:49:02;;;;;;;52.88;26.20;;;3.10;99.90;;;;;;2585731;47;19938;31
2022/01/25 00:57:26;;;;;;;64.53;28.13;;;3.10;99.90;;;;;;2584976;54;20971;31
2022/01/25 01:00:19;;;;;;;52.25;26.90;;;3.10;99.90;;;;;;2602137;46;20026;31
2022/01/25 01:06:18;;;;;;;67.18;29.45;;;3.10;99.90;;;;;;2682298;39;21559;31
2022/01/25 01:08:59;;;;;;;68.85;29.55;;;3.10;99.90;;;;;;2584466;54;21160;31
2022/01/25 01:11:44;;;;;;;72.68;29.73;;;3.10;99.90;;;;;;2585417;54;21431;31
2022/01/25 01:14:30;;;;;;;61.92;27.60;;;3.10;99.90;;;;;;2585066;54;20031;31
2022/01/25 01:31:16;;;;;;;54.58;27.13;;;3.20;99.90;;;;;;2602918;46;20018;31
2022/01/25 01:34:41;;;;;;;56.10;27.35;;;3.20;99.90;;;;;;2603161;46;20898;31
2022/01/25 01:37:54;;;;;;;61.13;26.97;;;3.20;99.90;;;;;;2594968;46;20048;31
2022/01/25 01:40:54;;;;;;;63.78;28.80;;;3.20;99.90;;;;;;2601713;46;20237;31
2022/01/25 01:46:44;;;;;;;67.13;28.43;;;3.10;99.90;;;;;;2588649;46;21019;31
2022/01/25 01:51:59;;;;;;;57.73;26.80;;;3.20;99.90;;;;;;2585304;54;19957;31
2022/01/25 01:55:01;;;;;;;54.80;27.73;;;3.20;99.90;;;;;;2584707;54;20901;31
2022/01/25 01:57:58;;;;;;;54.30;25.73;;;3.20;99.90;;;;;;2584952;54;21232;31
2022/01/25 02:09:23;;;;;;;57.83;25.85;;;3.20;99.90;;;;;;2631980;54;20031;-94
2022/01/25 02:14:47;;;;;;;38.30;22.05;;;3.20;99.90;;;;;;2584555;54;20030;31
2022/01/25 02:17:51;;;;;;;46.80;22.90;;;3.20;99.90;;;;;;2603506;46;21010;31
2022/01/25 02:26:40;;;;;;;38.85;18.75;;;3.20;99.90;;;;;;2584642;54;20967;31
2022/01/25 02:29:38;;;;;;;36.70;21.00;;;3.20;99.90;;;;;;2584987;54;20847;31
2022/01/25 02:36:06;;;;;;;30.45;17.75;;;3.30;99.90;;;;;;2584919;54;20811;31
2022/01/25 02:38:50;;;;;;;33.90;19.03;;;3.30;99.90;;;;;;2584664;54;20849;31
2022/01/25 02:52:47;;;;;;;39.72;20.25;;;3.30;99.90;;;;;;2632229;54;20315;-90
2022/01/25 02:55:37;;;;;;;42.50;21.77;;;3.30;99.90;;;;;;2584720;54;20937;31
2022/01/25 03:41:32;;;;;;;45.90;22.75;;;3.40;99.90;;;;;;2581596;54;20720;31
2022/01/25 03:56:48;;;;;;;48.47;23.15;;;3.40;99.90;;;;;;2585062;54;20980;31
2022/01/25 04:02:37;;;;;;;38.45;20.15;;;3.40;99.90;;;;;;2584977;54;20076;31
2022/01/25 04:11:17;;;;;;;31.30;18.30;;;3.50;99.90;;;;;;2583936;54;20052;31
2022/01/25 04:26:30;;;;;;;41.90;20.00;;;3.40;99.90;;;;;;2584797;54;20030;31
2022/01/25 04:29:20;;;;;;;37.28;20.23;;;3.50;99.90;;;;;;2604010;46;20048;31
2022/01/25 05:25:57;;;;;;;34.35;17.30;;;3.40;99.90;;;;;;2594631;46;20030;31
2022/01/25 05:59:27;;;;;;;31.90;16.25;;;3.40;99.90;;;;;;2584164;54;21157;31
2022/01/25 06:02:16;;;;;;;26.97;14.60;;;3.40;99.90;;;;;;2601864;46;20961;31
2022/01/25 06:05:25;;;;;;;37.05;15.55;;;3.40;99.90;;;;;;2584272;54;20077;31
2022/01/25 07:10:45;;;;;;;47.25;18.95;;;3.50;99.90;;;;;;2631639;46;20017;-94
2022/01/25 07:13:52;;;;;;;36.80;17.70;;;3.40;99.90;;;;;;2586304;54;20023;31
2022/01/25 07:16:55;;;;;;;32.40;16.95;;;3.40;99.90;;;;;;2585455;54;20022;31
2022/01/25 07:19:31;;;;;;;42.10;19.55;;;3.50;99.90;;;;;;2585912;54;21286;31
2022/01/25 07:22:05;;;;;;;36.73;18.00;;;3.50;99.90;;;;;;2604113;46;20906;31
2022/01/25 07:24:48;;;;;;;40.88;18.60;;;3.50;99.90;;;;;;2585550;54;20036;31
2022/01/25 07:27:26;;;;;;;46.03;19.17;;;3.50;99.90;;;;;;2585396;54;20911;31
2022/01/25 07:30:02;;;;;;;35.85;17.15;;;3.50;99.90;;;;;;2585792;54;20031;31
2022/01/25 07:32:49;;;;;;;40.65;20.70;;;3.50;99.90;;;;;;2585895;54;20053;31
2022/01/25 07:35:27;;;;;;;34.03;17.20;;;3.50;99.90;;;;;;2585314;54;20034;31
2022/01/25 07:38:20;;;;;;;;;;;;;;;;;;;;;
2022/01/25 07:44:15;;;;;;;29.07;16.47;;;3.40;99.90;;;;;;2585537;54;20033;31
2022/01/25 07:47:01;;;;;;;25.85;15.85;;;3.30;99.90;;;;;;2585738;54;20049;31
2022/01/25 07:49:54;;;;;;;21.40;14.15;;;3.40;99.90;;;;;;2585879;54;20894;31
2022/01/25 07:52:38;;;;;;;25.37;15.23;;;3.30;99.90;;;;;;2585726;54;20030;31
2022/01/25 07:55:20;;;;;;;24.63;14.63;;;3.20;99.90;;;;;;2585515;54;21225;31
2022/01/25 07:58:02;;;;;;;19.02;11.93;;;3.20;99.90;;;;;;2585811;54;20057;31
2022/01/25 08:00:38;;;;;;;22.52;13.30;;;3.20;99.90;;;;;;2585498;54;21897;31
2022/01/25 08:03:16;;;;;;;22.05;13.40;;;3.10;99.90;;;;;;2584603;54;20819;31
2022/01/25 08:09:15;;;;;;;20.25;12.30;;;3.20;99.90;;;;;;2585956;54;20919;31
2022/01/25 08:15:17;;;;;;;20.75;13.05;;;3.10;99.90;;;;;;2585236;54;20029;31
2022/01/25 08:25:23;;;;;;;23.43;12.97;;;3.10;99.90;;;;;;2588787;46;20890;31
2022/01/25 08:30:50;;;;;;;20.97;12.97;;;3.10;99.90;;;;;;2602970;46;20917;31
2022/01/25 08:33:40;;;;;;;21.52;12.50;;;3.20;99.90;;;;;;2586552;46;20811;31
2022/01/25 08:43:10;;;;;;;18.20;12.00;;;3.30;99.90;;;;;;2585294;54;20029;31
2022/01/25 08:52:01;;;;;;;20.05;11.40;;;3.30;99.90;;;;;;2603616;46;20057;31
2022/01/25 09:08:01;;;;;;;16.10;9.77;;;3.20;99.90;;;;;;2584777;54;20988;31
2022/01/25 09:10:50;;;;;;;17.97;10.30;;;3.30;99.90;;;;;;2584478;54;20034;31
2022/01/25 09:13:34;;;;;;;15.95;8.90;;;3.30;99.90;;;;;;2603452;46;21996;31
2022/01/25 09:16:31;;;;;;;18.57;10.37;;;3.30;99.90;;;;;;2585295;54;21038;31
2022/01/25 09:19:29;;;;;;;21.55;11.15;;;3.20;99.90;;;;;;2585387;54;22687;31
2022/01/25 09:22:31;;;;;;;17.60;9.90;;;3.20;99.90;;;;;;2585366;54;20084;31
2022/01/25 09:34:52;;;;;;;21.40;12.40;;;3.20;99.90;;;;;;2585132;54;20027;31
2022/01/25 09:51:06;;;;;;;20.35;10.55;;;3.50;99.90;;;;;;2584987;54;20884;31
2022/01/25 09:56:44;;;;;;;19.42;11.15;;;3.60;99.90;;;;;;2682990;39;21188;31
2022/01/25 10:02:49;;;;;;;22.90;12.30;;;3.80;99.90;;;;;;2603598;46;20957;31
2022/01/25 10:15:45;;;;;;;;;;;;;;;;;;;;;
2022/01/25 10:22:13;;;;;;;18.10;10.88;;;4.20;99.90;;;;;;2584767;54;21097;31
2022/01/25 10:24:46;;;;;;;17.33;9.48;;;4.30;99.90;;;;;;2603259;46;20049;31
2022/01/25 10:34:27;;;;;;;16.40;9.13;;;4.30;99.90;;;;;;2585179;54;20030;31
2022/01/25 10:40:29;;;;;;;16.60;9.70;;;4.50;99.90;;;;;;2589164;46;21037;31
2022/01/25 10:46:03;;;;;;;14.35;9.20;;;4.50;99.90;;;;;;2584085;54;20929;31
2022/01/25 10:52:14;;;;;;;17.35;9.40;;;4.40;99.90;;;;;;2584679;54;20030;31
2022/01/25 10:54:57;;;;;;;16.13;8.60;;;4.40;99.90;;;;;;2584894;54;20037;31
2022/01/25 11:01:09;;;;;;;15.20;7.85;;;4.40;99.90;;;;;;2584760;54;20876;31
2022/01/25 11:03:45;;;;;;;16.07;8.20;;;4.50;99.90;;;;;;2585009;54;20781;31
2022/01/25 11:06:38;;;;;;;14.40;8.40;;;4.40;99.90;;;;;;2603230;47;20975;31
2022/01/25 11:19:07;;;;;;;17.33;9.07;;;4.50;99.90;;;;;;2585040;54;20037;31
2022/01/25 11:21:59;;;;;;;15.80;8.33;;;4.50;99.90;;;;;;2584680;54;21121;31
2022/01/25 11:24:47;;;;;;;16.83;9.20;;;4.50;99.90;;;;;;2584968;54;22405;31
2022/01/25 11:27:43;;;;;;;17.50;9.45;;;4.60;99.90;;;;;;2584929;54;20027;31
2022/01/25 11:33:19;;;;;;;12.15;8.18;;;4.70;99.90;;;;;;2586115;54;21173;31
2022/01/25 11:36:01;;;;;;;17.25;8.40;;;4.80;99.90;;;;;;2584830;54;20023;31
2022/01/25 11:38:45;;;;;;;15.82;7.88;;;4.80;99.90;;;;;;2585839;54;20964;31
2022/01/25 11:41:35;;;;;;;14.35;7.93;;;4.80;99.90;;;;;;2584853;54;21098;31
2022/01/25 11:47:27;;;;;;;10.25;6.55;;;4.80;99.90;;;;;;2585441;54;20029;31
2022/01/25 11:50:11;;;;;;;15.73;8.38;;;4.80;99.90;;;;;;2754197;31;21186;31
2022/01/25 11:52:53;;;;;;;12.05;7.45;;;4.80;99.90;;;;;;2604411;46;20917;31
2022/01/25 11:55:33;;;;;;;14.40;8.25;;;5.00;99.90;;;;;;2584648;54;20026;31
2022/01/25 12:01:35;;;;;;;13.85;8.05;;;5.10;99.90;;;;;;2585201;54;20081;31
2022/01/25 12:04:13;;;;;;;13.05;7.85;;;5.10;99.90;;;;;;2585333;54;20964;31
2022/01/25 12:07:00;;;;;;;12.27;6.97;;;5.20;99.90;;;;;;2585413;54;21002;31
2022/01/25 12:09:50;;;;;;;15.65;8.13;;;5.20;99.90;;;;;;2589836;46;20889;31
2022/01/25 12:12:40;;;;;;;14.65;7.50;;;5.20;99.90;;;;;;2603725;46;20038;31
2022/01/25 12:15:27;;;;;;;14.65;8.00;;;5.10;99.90;;;;;;2584331;54;20064;31
2022/01/25 12:18:18;;;;;;;14.23;7.67;;;5.10;99.90;;;;;;2584523;54;20026;31
2022/01/25 12:24:48;;;;;;;13.80;7.03;;;5.00;99.90;;;;;;2584271;54;20030;31
2022/01/25 12:30:59;;;;;;;10.13;6.22;;;4.80;99.90;;;;;;2585476;54;20984;31
2022/01/25 12:39:18;;;;;;;10.63;6.20;;;4.70;99.90;;;;;;2585678;54;19938;31
2022/01/25 12:42:07;;;;;;;10.80;5.77;;;4.60;99.90;;;;;;2584970;54;20272;31
2022/01/25 12:48:12;;;;;;;8.83;5.40;;;4.70;99.90;;;;;;2588957;46;20970;31
2022/01/25 13:36:55;;;;;;;14.90;8.07;;;4.40;99.90;;;;;;2581314;54;20010;31
2022/01/25 13:51:03;;;;;;;14.77;8.53;;;4.40;99.90;;;;;;2584274;54;20954;31
2022/01/25 14:03:07;;;;;;;13.00;7.03;;;4.30;99.90;;;;;;2581696;54;21020;31
2022/01/25 14:50:38;;;;;;;12.55;6.80;;;4.10;99.90;;;;;;2585113;54;20053;31
2022/01/25 14:53:35;;;;;;;12.10;6.90;;;4.10;99.90;;;;;;2584953;54;20052;31
2022/01/25 14:56:34;;;;;;;11.32;6.90;;;4.10;99.90;;;;;;2584432;54;20709;31
2022/01/25 15:02:02;;;;;;;13.83;7.63;;;4.00;99.90;;;;;;2603307;47;20250;31
2022/01/25 15:04:42;;;;;;;13.48;6.63;;;4.00;99.90;;;;;;2584928;54;20967;31
2022/01/25 15:07:20;;;;;;;18.07;7.77;;;3.90;99.90;;;;;;2585455;54;20026;31
2022/01/25 15:09:59;;;;;;;13.40;7.00;;;3.90;99.90;;;;;;2585606;54;20785;31
2022/01/25 15:12:41;;;;;;;13.50;6.80;;;3.90;99.90;;;;;;2585810;54;20825;31
2022/01/25 15:15:17;;;;;;;13.40;6.95;;;3.80;99.90;;;;;;2585654;54;20856;31
2022/01/25 15:17:51;;;;;;;17.67;8.18;;;3.90;99.90;;;;;;2585353;54;20132;31
2022/01/25 15:20:27;;;;;;;15.40;7.97;;;3.80;99.90;;;;;;2585747;54;20029;31
2022/01/25 15:27:05;;;;;;;16.27;8.23;;;3.80;99.90;;;;;;2585635;54;20035;31
2022/01/25 15:32:17;;;;;;;20.60;10.90;;;3.70;99.90;;;;;;2584992;54;21114;31
2022/01/25 15:34:59;;;;;;;19.33;10.17;;;3.70;99.90;;;;;;2585423;54;21422;31
2022/01/25 15:37:45;;;;;;;20.95;10.35;;;3.70;99.90;;;;;;2585518;54;20153;31
2022/01/25 15:40:29;;;;;;;15.50;8.65;;;3.70;99.90;;;;;;2589222;46;20901;31
2022/01/25 15:43:08;;;;;;;17.65;8.95;;;3.70;99.90;;;;;;2585678;54;21063;31
2022/01/25 15:48:33;;;;;;;16.10;7.95;;;3.70;99.90;;;;;;2603668;46;20031;31
2022/01/25 15:51:06;;;;;;;18.83;9.02;;;3.70;99.90;;;;;;2585689;54;20158;31
2022/01/25 15:53:40;;;;;;;15.30;8.40;;;3.70;99.90;;;;;;2585730;54;20884;31
2022/01/25 15:56:14;;;;;;;16.80;8.15;;;3.70;99.90;;;;;;2585698;54;20033;31
2022/01/25 15:58:50;;;;;;;17.13;10.30;;;3.70;99.90;;;;;;2585351;54;20128;31
2022/01/25 16:01:42;;;;;;;16.77;8.63;;;3.70;99.90;;;;;;2591763;46;20902;31
2022/01/25 16:06:46;;;;;;;17.20;9.18;;;3.60;99.90;;;;;;2603891;46;20783;31
2022/01/25 16:09:20;;;;;;;16.75;8.90;;;3.60;99.90;;;;;;2585610;54;20026;31
2022/01/25 16:11:54;;;;;;;16.75;9.40;;;3.70;99.90;;;;;;2585619;54;20081;31
2022/01/25 16:14:30;;;;;;;16.80;9.73;;;3.60;99.90;;;;;;2585662;54;20030;31
2022/01/25 16:17:03;;;;;;;17.30;8.80;;;3.60;99.90;;;;;;2585514;54;20053;31
2022/01/25 16:19:36;;;;;;;17.07;8.73;;;3.50;99.90;;;;;;2585560;54;21868;31
2022/01/25 16:22:09;;;;;;;17.63;9.35;;;3.50;99.90;;;;;;2585561;54;20061;31
2022/01/25 16:24:43;;;;;;;18.30;9.93;;;3.50;99.90;;;;;;2585544;54;20833;31
2022/01/25 16:27:17;;;;;;;16.30;9.82;;;3.50;99.90;;;;;;2585560;54;20760;31
2022/01/25 16:29:53;;;;;;;18.65;10.30;;;3.50;99.90;;;;;;2585566;54;20927;31
2022/01/25 16:32:26;;;;;;;16.13;9.32;;;3.50;99.90;;;;;;2585940;54;21111;31
2022/01/25 16:35:00;;;;;;;14.65;8.65;;;3.40;99.90;;;;;;2585350;54;20061;31
2022/01/25 16:37:32;;;;;;;15.20;8.25;;;3.40;99.90;;;;;;2585754;54;21297;31
2022/01/25 16:40:07;;;;;;;14.00;8.40;;;3.40;99.90;;;;;;2604295;46;20049;31
2022/01/25 16:42:40;;;;;;;15.90;8.53;;;3.40;99.90;;;;;;2585379;54;20020;31
2022/01/25 16:45:18;;;;;;;16.25;8.63;;;3.40;99.90;;;;;;2585482;54;20030;31
2022/01/25 16:47:50;;;;;;;16.17;9.27;;;3.40;99.90;;;;;;2603878;46;20905;31
2022/01/25 16:50:25;;;;;;;14.75;8.80;;;3.40;99.90;;;;;;2585558;54;20928;31
2022/01/25 16:52:59;;;;;;;13.95;8.00;;;3.40;99.90;;;;;;2585709;54;20049;31
2022/01/25 16:55:32;;;;;;;12.68;8.52;;;3.40;99.90;;;;;;2585716;54;20065;31
2022/01/25 16:58:22;;;;;;;13.82;8.80;;;3.40;99.90;;;;;;2585578;54;20050;31
2022/01/25 17:00:57;;;;;;;14.90;8.40;;;3.40;99.90;;;;;;2585414;54;20791;31
2022/01/25 17:03:31;;;;;;;16.85;9.27;;;3.40;99.90;;;;;;2585610;54;20047;31
2022/01/25 17:06:05;;;;;;;15.77;8.68;;;3.40;99.90;;;;;;2604191;46;20913;31
2022/01/25 17:08:39;;;;;;;20.65;9.48;;;3.30;99.90;;;;;;2585309;54;20979;31
2022/01/25 17:11:14;;;;;;;18.00;9.52;;;3.30;99.90;;;;;;2585555;54;21021;31
2022/01/25 17:14:12;;;;;;;16.20;9.05;;;3.40;99.90;;;;;;2603967;46;20911;31
2022/01/25 17:16:52;;;;;;;19.35;9.45;;;3.50;99.90;;;;;;2683673;39;21093;31
2022/01/25 17:22:12;;;;;;;18.30;9.20;;;3.50;99.90;;;;;;2585194;54;20864;31
2022/01/25 17:24:51;;;;;;;17.20;10.10;;;3.50;99.90;;;;;;2585314;54;20038;31
2022/01/25 17:27:26;;;;;;;18.15;10.10;;;3.50;99.90;;;;;;2585732;54;22423;31
2022/01/25 17:30:10;;;;;;;17.63;10.30;;;3.50;99.90;;;;;;2585122;54;20093;31
2022/01/25 17:32:50;;;;;;;18.35;9.93;;;3.50;99.90;;;;;;2584995;54;19953;31
2022/01/25 17:35:29;;;;;;;16.27;10.20;;;3.50;99.90;;;;;;2584886;54;20790;31
2022/01/25 17:40:46;;;;;;;16.52;10.77;;;3.50;99.90;;;;;;2585713;54;21079;31
2022/01/25 17:46:00;;;;;;;17.50;10.37;;;3.40;99.90;;;;;;2683376;39;21035;31
2022/01/25 17:48:44;;;;;;;16.73;11.07;;;3.40;99.90;;;;;;2585409;54;20027;31
2022/01/25 17:51:19;;;;;;;19.83;10.93;;;3.30;99.90;;;;;;2585835;54;22374;31
2022/01/25 17:53:57;;;;;;;18.20;10.73;;;3.30;99.90;;;;;;2585435;54;20026;31
2022/01/25 17:56:30;;;;;;;19.60;11.23;;;3.30;99.90;;;;;;2603967;46;20089;31
2022/01/25 17:59:04;;;;;;;19.40;11.00;;;3.30;99.90;;;;;;2585296;54;20308;31
2022/01/25 18:01:37;;;;;;;21.70;10.97;;;3.30;99.90;;;;;;2603676;46;20090;31
2022/01/25 18:04:13;;;;;;;18.65;10.90;;;3.30;99.90;;;;;;2584864;54;20029;31
2022/01/25 18:06:50;;;;;;;22.20;12.00;;;3.30;99.90;;;;;;2585465;54;20034;31
2022/01/25 18:09:25;;;;;;;21.40;11.13;;;3.30;99.90;;;;;;2603134;46;20141;31
2022/01/25 18:12:03;;;;;;;20.10;12.15;;;3.30;99.90;;;;;;2585218;54;20899;31
2022/01/25 18:14:50;;;;;;;19.00;11.60;;;3.30;99.90;;;;;;2585232;54;21716;31
2022/01/25 18:17:38;;;;;;;20.13;12.03;;;3.20;99.90;;;;;;2585015;54;20954;31
2022/01/25 18:20:16;;;;;;;23.40;13.10;;;3.30;99.90;;;;;;2584942;54;20844;31
2022/01/25 18:22:56;;;;;;;18.75;11.55;;;3.30;99.90;;;;;;2604016;46;20031;31
2022/01/25 18:25:56;;;;;;;21.15;12.30;;;3.30;99.90;;;;;;2585538;54;20022;31
2022/01/25 18:28:29;;;;;;;20.10;11.05;;;3.30;99.90;;;;;;2585250;54;20110;31
2022/01/25 18:31:03;;;;;;;19.75;11.00;;;3.30;99.90;;;;;;2585408;54;20946;31
2022/01/25 18:33:38;;;;;;;19.60;10.70;;;3.20;99.90;;;;;;2585098;54;20045;31
2022/01/25 18:36:14;;;;;;;20.98;11.23;;;3.20;99.90;;;;;;2603453;46;20149;31
2022/01/25 18:41:16;;;;;;;17.60;12.30;;;3.20;99.90;;;;;;2682871;39;21695;31
2022/01/25 18:43:54;;;;;;;20.15;12.00;;;3.20;99.90;;;;;;2585222;54;20033;31
2022/01/25 18:46:31;;;;;;;19.50;11.65;;;3.20;99.90;;;;;;2603732;46;20136;31
2022/01/25 18:49:08;;;;;;;22.30;11.75;;;3.20;99.90;;;;;;2585049;54;20121;31
2022/01/25 18:51:41;;;;;;;20.80;9.75;;;3.20;99.90;;;;;;2603666;47;20108;31
2022/01/25 18:54:18;;;;;;;19.50;11.18;;;3.20;99.90;;;;;;2603510;47;20112;31
2022/01/25 18:56:51;;;;;;;17.58;10.48;;;3.10;99.90;;;;;;2585211;54;20112;31
2022/01/25 18:59:26;;;;;;;22.88;12.10;;;3.20;99.90;;;;;;2584982;54;20033;31
2022/01/25 19:02:09;;;;;;;21.25;12.65;;;3.10;99.90;;;;;;2585051;54;20034;31
2022/01/25 19:04:45;;;;;;;22.60;12.10;;;3.20;99.90;;;;;;2584882;54;20032;31
2022/01/25 19:07:19;;;;;;;23.87;13.57;;;3.20;99.90;;;;;;2603549;47;21165;31
2022/01/25 19:09:57;;;;;;;21.63;12.52;;;3.20;99.90;;;;;;2584953;54;20862;31
2022/01/25 19:12:30;;;;;;;27.60;13.13;;;3.20;99.90;;;;;;2584820;54;20022;31
2022/01/25 19:15:05;;;;;;;22.55;12.57;;;3.20;99.90;;;;;;2603254;47;21182;31
2022/01/25 19:17:39;;;;;;;19.35;11.95;;;3.20;99.90;;;;;;2585118;54;20030;31
2022/01/25 19:20:13;;;;;;;20.38;12.88;;;3.20;99.90;;;;;;2584814;54;20128;31
2022/01/25 19:22:46;;;;;;;26.40;14.40;;;3.10;99.90;;;;;;2584965;54;20975;31
2022/01/25 19:25:23;;;;;;;25.15;13.00;;;3.10;99.90;;;;;;2585081;54;20030;31
2022/01/25 19:27:56;;;;;;;22.95;12.45;;;3.10;99.90;;;;;;2584594;54;21031;31
2022/01/25 19:30:29;;;;;;;22.63;12.10;;;3.20;99.90;;;;;;2584821;54;20030;31
2022/01/25 19:33:04;;;;;;;22.05;13.15;;;3.20;99.90;;;;;;2584886;54;20097;31
2022/01/25 19:35:37;;;;;;;24.07;12.93;;;3.20;99.90;;;;;;2682302;39;20533;31
2022/01/25 19:38:14;;;;;;;21.95;12.50;;;3.10;99.90;;;;;;2603666;47;20601;31
2022/01/25 19:41:00;;;;;;;23.13;12.43;;;3.10;99.90;;;;;;2584728;54;20882;31
2022/01/25 19:43:43;;;;;;;18.47;11.37;;;3.10;99.90;;;;;;2603350;47;20835;31
2022/01/25 19:46:23;;;;;;;22.05;12.15;;;3.20;99.90;;;;;;2584675;54;21078;31
2022/01/25 19:49:14;;;;;;;19.10;11.45;;;3.10;99.90;;;;;;2585143;54;20056;31
2022/01/25 19:51:51;;;;;;;24.33;13.00;;;3.10;99.90;;;;;;2584886;54;20140;31
2022/01/25 19:54:30;;;;;;;20.47;11.80;;;3.10;99.90;;;;;;2585613;54;20089;31
2022/01/25 20:00:12;;;;;;;22.10;12.20;;;3.10;99.90;;;;;;2584807;54;20200;31
2022/01/25 20:03:01;;;;;;;26.08;12.60;;;3.10;99.90;;;;;;2585883;54;19935;31
2022/01/25 20:05:44;;;;;;;21.98;12.57;;;3.10;99.90;;;;;;2585328;54;20026;31
2022/01/25 20:08:27;;;;;;;20.15;12.10;;;3.10;99.90;;;;;;2585348;54;20776;31
2022/01/25 20:11:08;;;;;;;22.35;12.25;;;3.10;99.90;;;;;;2584709;54;20922;31
2022/01/25 20:14:11;;;;;;;22.73;10.87;;;3.10;99.90;;;;;;2589371;46;21049;31
2022/01/25 20:16:50;;;;;;;24.95;13.35;;;3.10;99.90;;;;;;2585373;54;20951;31
2022/01/25 20:19:29;;;;;;;20.95;11.70;;;3.10;99.90;;;;;;2585380;54;20034;31
2022/01/25 20:22:13;;;;;;;23.77;13.30;;;3.10;99.90;;;;;;2585414;54;20948;31
2022/01/25 20:24:58;;;;;;;24.88;13.98;;;3.10;99.90;;;;;;2585817;54;20027;31
2022/01/25 20:27:54;;;;;;;22.15;13.73;;;3.10;99.90;;;;;;2683831;39;21022;31
2022/01/25 20:30:44;;;;;;;24.20;13.80;;;3.10;99.90;;;;;;2585473;54;20912;31
2022/01/25 20:33:34;;;;;;;22.70;14.15;;;3.10;99.90;;;;;;2701746;39;21170;31
2022/01/25 20:39:28;;;;;;;25.95;13.45;;;3.10;99.90;;;;;;2585518;54;20030;31
2022/01/25 20:42:15;;;;;;;28.52;15.38;;;3.10;99.90;;;;;;2585405;54;20881;31
2022/01/25 20:44:56;;;;;;;27.80;14.82;;;3.10;99.90;;;;;;2585281;54;20116;31
2022/01/25 20:47:39;;;;;;;28.30;15.00;;;3.10;99.90;;;;;;2584622;54;20029;31
2022/01/25 20:50:18;;;;;;;32.03;14.17;;;3.10;99.90;;;;;;2600547;46;20026;31
2022/01/25 20:55:48;;;;;;;24.13;13.68;;;3.10;99.90;;;;;;2585470;54;20936;31
2022/01/25 20:58:30;;;;;;;25.92;14.43;;;3.10;99.90;;;;;;2585542;54;20022;31
2022/01/25 21:01:09;;;;;;;27.95;14.95;;;3.00;99.90;;;;;;2603549;46;20089;31
2022/01/25 21:06:56;;;;;;;28.77;15.90;;;3.10;99.90;;;;;;2604225;46;21862;31
2022/01/25 21:09:36;;;;;;;29.08;15.65;;;3.10;99.90;;;;;;2585638;54;20884;31
2022/01/25 21:12:12;;;;;;;28.77;15.57;;;3.10;99.90;;;;;;2585597;54;20049;31
2022/01/25 21:14:49;;;;;;;30.95;16.45;;;3.10;99.90;;;;;;2591505;46;20089;31
2022/01/25 21:20:33;;;;;;;32.05;16.33;;;3.10;99.90;;;;;;2584419;54;20816;31
2022/01/25 21:23:07;;;;;;;24.75;14.25;;;3.10;99.90;;;;;;2604016;46;20049;31
2022/01/25 21:25:51;;;;;;;24.65;14.00;;;3.10;99.90;;;;;;2585651;54;21135;31
2022/01/25 21:28:43;;;;;;;27.80;15.73;;;3.10;99.90;;;;;;2585559;54;20988;31
2022/01/25 21:31:18;;;;;;;25.70;14.03;;;3.10;99.90;;;;;;2585226;54;20052;31
2022/01/25 21:34:03;;;;;;;27.08;13.55;;;3.10;99.90;;;;;;2603953;46;20261;31
2022/01/25 21:36:46;;;;;;;27.60;15.25;;;3.10;99.90;;;;;;2585449;54;20027;31
2022/01/25 21:42:12;;;;;;;25.00;15.15;;;3.10;99.90;;;;;;2585184;54;21217;31
2022/01/25 21:44:48;;;;;;;26.50;14.80;;;3.10;99.90;;;;;;2584705;54;20108;31
2022/01/25 21:47:25;;;;;;;30.25;16.90;;;3.00;99.90;;;;;;2585475;54;20053;31
2022/01/25 21:50:11;;;;;;;28.20;15.50;;;3.10;99.90;;;;;;2585463;54;20931;31
2022/01/25 21:52:53;;;;;;;27.77;15.88;;;3.00;99.90;;;;;;2585291;54;20060;31
2022/01/25 21:55:37;;;;;;;30.25;16.40;;;3.00;99.90;;;;;;2603923;46;20030;31
2022/01/25 21:58:27;;;;;;;26.50;14.70;;;3.00;99.90;;;;;;2589553;46;20062;31
2022/01/25 22:01:04;;;;;;;23.70;15.03;;;3.00;99.90;;;;;;2603624;46;20210;31
2022/01/25 22:03:56;;;;;;;26.45;15.40;;;3.00;99.90;;;;;;2585368;54;20030;31
2022/01/25 22:06:42;;;;;;;26.27;14.47;;;3.00;99.90;;;;;;2585017;54;20030;31
2022/01/25 22:09:36;;;;;;;24.02;14.13;;;3.00;99.90;;;;;;2683287;39;21380;31
2022/01/25 22:12:20;;;;;;;26.35;15.10;;;3.00;99.90;;;;;;2585213;54;20108;31
2022/01/25 22:15:00;;;;;;;27.23;14.98;;;3.10;99.90;;;;;;2603367;46;20907;31
2022/01/25 22:17:41;;;;;;;26.90;14.98;;;3.00;99.90;;;;;;2585021;54;20026;31
2022/01/25 22:20:20;;;;;;;25.80;15.23;;;3.10;99.90;;;;;;2584762;54;20027;31
2022/01/25 22:22:57;;;;;;;25.10;15.20;;;3.00;99.90;;;;;;2603325;46;20913;31
2022/01/25 22:25:30;;;;;;;25.35;16.00;;;3.00;99.90;;;;;;2584500;54;20042;31
2022/01/25 22:28:07;;;;;;;22.77;13.80;;;3.10;99.90;;;;;;2585239;54;20056;31
2022/01/25 22:30:40;;;;;;;23.35;14.52;;;3.00;99.90;;;;;;2585230;54;20026;31
2022/01/25 22:33:13;;;;;;;25.30;13.70;;;2.90;99.90;;;;;;2585202;54;20038;31
2022/01/25 22:35:47;;;;;;;26.23;14.47;;;3.00;99.90;;;;;;2585188;54;20945;31
2022/01/25 22:38:21;;;;;;;25.85;14.90;;;3.00;99.90;;;;;;2585103;54;20329;31
2022/01/25 22:40:55;;;;;;;27.95;15.80;;;3.10;99.90;;;;;;2603978;46;20849;31
2022/01/25 22:43:35;;;;;;;27.30;15.45;;;3.00;99.90;;;;;;2585125;54;20033;31
2022/01/25 22:46:09;;;;;;;25.75;14.27;;;3.00;99.90;;;;;;2683297;39;21157;31
2022/01/25 22:48:53;;;;;;;29.70;15.18;;;3.00;99.90;;;;;;2584256;54;20941;31
2022/01/25 22:51:27;;;;;;;23.10;13.70;;;3.10;99.90;;;;;;2585123;54;20050;31
2022/01/25 22:54:01;;;;;;;23.40;14.00;;;3.00;99.90;;;;;;2585082;54;20756;31
2022/01/25 22:56:34;;;;;;;23.37;13.57;;;3.00;99.90;;;;;;2585044;54;20058;31
2022/01/25 22:59:11;;;;;;;23.98;14.55;;;3.00;99.90;;;;;;2585042;54;20867;31
2022/01/25 23:02:13;;;;;;;27.25;15.30;;;3.00;99.90;;;;;;2584857;54;20912;31
2022/01/25 23:04:40;;;;;;;26.05;14.75;;;3.00;99.90;;;;;;2585213;54;20027;31
2022/01/25 23:07:12;;;;;;;34.45;16.38;;;3.00;99.90;;;;;;2584990;54;20183;31
2022/01/25 23:09:47;;;;;;;29.15;15.30;;;3.00;99.90;;;;;;2585149;54;21167;31
2022/01/25 23:12:40;;;;;;;23.85;14.90;;;3.00;99.90;;;;;;2585026;54;20097;31
2022/01/25 23:15:20;;;;;;;29.05;14.57;;;3.00;99.90;;;;;;2584999;54;20899;31
2022/01/25 23:18:00;;;;;;;22.67;13.27;;;3.00;99.90;;;;;;2585156;54;20937;31
2022/01/25 23:20:33;;;;;;;21.65;13.70;;;3.00;99.90;;;;;;2682969;39;21145;31
2022/01/25 23:23:06;;;;;;;24.55;14.00;;;3.00;99.90;;;;;;2585092;54;20030;31
2022/01/25 23:25:40;;;;;;;22.70;13.50;;;3.00;99.90;;;;;;2603403;47;20937;31
2022/01/25 23:28:14;;;;;;;23.85;13.45;;;3.00;99.90;;;;;;2586019;54;21169;31
2022/01/25 23:30:55;;;;;;;25.47;13.83;;;3.00;99.90;;;;;;2604195;46;21892;31
2022/01/25 23:33:41;;;;;;;24.67;12.93;;;2.90;99.90;;;;;;2585790;54;21260;31
2022/01/25 23:36:22;;;;;;;19.10;12.10;;;3.00;99.90;;;;;;2604356;46;20104;31
2022/01/25 23:39:01;;;;;;;27.87;14.37;;;3.00;99.90;;;;;;2604487;46;20939;31
2022/01/25 23:41:38;;;;;;;24.88;13.73;;;3.00;99.90;;;;;;2603844;46;20906;31
2022/01/25 23:44:16;;;;;;;25.33;14.07;;;2.90;99.90;;;;;;2604173;46;21139;31
2022/01/25 23:46:56;;;;;;;21.70;13.25;;;3.00;99.90;;;;;;2585609;54;20943;31
2022/01/25 23:49:43;;;;;;;27.53;14.33;;;3.00;99.90;;;;;;2586013;54;20912;31
